createdAt,value
2023-01-08T00:01:18.767Z,0.70
2023-01-08T00:03:47.227Z,1.52
2023-01-08T00:06:16.379Z,1.13
2023-01-08T00:08:44.337Z,1.42
2023-01-08T00:11:12.659Z,1.10
2023-01-08T00:13:42.116Z,1.05
2023-01-08T00:16:11.177Z,1.13
2023-01-08T00:18:39.089Z,1.10
2023-01-08T00:21:07.401Z,0.93
2023-01-08T00:23:35.417Z,1.48
2023-01-08T00:26:03.601Z,1.27
2023-01-08T00:28:31.487Z,1.25
2023-01-08T00:31:03.419Z,1.02
2023-01-08T00:33:31.794Z,0.88
2023-01-08T00:35:59.679Z,1.30
2023-01-08T00:38:27.630Z,0.82
2023-01-08T00:40:55.598Z,1.45
2023-01-08T00:43:23.460Z,1.10
2023-01-08T00:45:53.853Z,0.88
2023-01-08T00:48:24.612Z,1.10
2023-01-08T00:50:53.254Z,1.10
2023-01-08T00:53:21.886Z,1.00
2023-01-08T00:55:49.809Z,0.95
2023-01-08T00:58:17.821Z,1.10
2023-01-08T01:00:45.743Z,0.95
2023-01-08T01:03:13.602Z,1.00
2023-01-08T01:05:43.006Z,0.95
2023-01-08T01:08:10.802Z,1.02
2023-01-08T01:10:40.018Z,0.90
2023-01-08T01:13:07.994Z,0.75
2023-01-08T01:15:36.002Z,1.00
2023-01-08T01:18:03.923Z,0.82
2023-01-08T01:20:31.932Z,0.65
2023-01-08T01:23:01.286Z,0.77
2023-01-08T01:25:29.455Z,0.52
2023-01-08T01:27:57.171Z,0.40
2023-01-08T01:30:24.835Z,1.10
2023-01-08T01:32:52.697Z,0.82
2023-01-08T01:35:20.561Z,0.60
2023-01-08T01:37:48.277Z,0.50
2023-01-08T01:40:17.620Z,0.47
2023-01-08T01:42:45.537Z,0.47
2023-01-08T01:45:18.882Z,0.40
2023-01-08T01:47:47.946Z,0.60
2023-01-08T01:50:17.030Z,0.82
2023-01-08T01:52:46.723Z,0.50
2023-01-08T01:55:14.915Z,0.55
2023-01-08T01:57:46.185Z,0.43
2023-01-08T02:00:14.357Z,0.65
2023-01-08T02:02:42.958Z,0.52
2023-01-08T02:05:11.255Z,0.50
2023-01-08T02:07:41.731Z,0.45
2023-01-08T02:10:11.523Z,0.63
2023-01-08T02:12:42.830Z,0.47
2023-01-08T02:15:15.123Z,0.47
2023-01-08T02:17:46.792Z,0.40
2023-01-08T02:20:15.979Z,0.60
2023-01-08T02:22:47.622Z,0.40
2023-01-08T02:25:19.458Z,0.57
2023-01-08T02:27:49.896Z,0.60
2023-01-08T02:30:18.460Z,0.30
2023-01-08T02:32:46.209Z,0.50
2023-01-08T02:35:14.123Z,0.40
2023-01-08T02:37:41.999Z,0.40
2023-01-08T02:40:14.673Z,0.40
2023-01-08T02:42:46.841Z,0.65
2023-01-08T02:45:21.201Z,0.68
2023-01-08T02:47:51.825Z,0.30
2023-01-08T02:50:22.616Z,0.50
2023-01-08T02:52:54.733Z,0.47
2023-01-08T02:55:23.980Z,0.60
2023-01-08T02:57:52.344Z,0.55
2023-01-08T03:00:21.968Z,0.40
2023-01-08T03:02:51.619Z,0.50
2023-01-08T03:05:23.521Z,0.22
2023-01-08T03:07:51.595Z,0.47
2023-01-08T03:10:19.740Z,0.50
2023-01-08T03:12:51.382Z,0.50
2023-01-08T03:15:24.519Z,0.50
2023-01-08T03:17:54.096Z,0.47
2023-01-08T03:20:23.682Z,0.30
2023-01-08T03:22:53.170Z,0.60
2023-01-08T03:25:22.165Z,0.40
2023-01-08T03:27:52.342Z,0.77
2023-01-08T03:30:22.658Z,0.50
2023-01-08T03:32:51.607Z,0.50
2023-01-08T03:35:21.869Z,0.63
2023-01-08T03:37:52.890Z,0.55
2023-01-08T03:40:22.669Z,0.65
2023-01-08T03:42:50.545Z,0.50
2023-01-08T03:45:18.494Z,0.47
2023-01-08T03:47:48.670Z,0.47
2023-01-08T03:50:18.328Z,0.35
2023-01-08T03:52:46.241Z,0.47
2023-01-08T03:55:14.111Z,0.68
2023-01-08T03:57:42.027Z,0.68
2023-01-08T04:00:11.015Z,0.68
2023-01-08T04:02:39.147Z,0.82
2023-01-08T04:05:09.411Z,0.40
2023-01-08T04:07:37.448Z,0.68
2023-01-08T04:10:06.113Z,0.40
2023-01-08T04:12:34.098Z,0.35
2023-01-08T04:15:02.100Z,0.40
2023-01-08T04:17:30.071Z,0.60
2023-01-08T04:19:57.866Z,0.38
2023-01-08T04:22:27.171Z,0.55
2023-01-08T04:24:54.995Z,0.40
2023-01-08T04:27:22.865Z,0.43
2023-01-08T04:29:50.673Z,0.30
2023-01-08T04:32:18.635Z,0.43
2023-01-08T04:34:46.562Z,0.20
2023-01-08T04:37:14.483Z,0.32
2023-01-08T04:39:43.885Z,0.55
2023-01-08T04:42:11.794Z,0.45
2023-01-08T04:44:39.648Z,0.70
2023-01-08T04:47:07.465Z,0.60
2023-01-08T04:49:35.339Z,0.30
2023-01-08T04:52:03.196Z,0.30
2023-01-08T04:54:31.064Z,0.40
2023-01-08T04:57:00.272Z,0.55
2023-01-08T04:59:28.228Z,0.40
2023-01-08T05:01:56.820Z,0.50
2023-01-08T05:04:24.778Z,0.40
2023-01-08T05:06:52.648Z,0.52
2023-01-08T05:09:20.567Z,0.50
2023-01-08T05:11:48.475Z,0.65
2023-01-08T05:14:17.745Z,0.32
2023-01-08T05:16:45.554Z,0.30
2023-01-08T05:19:13.400Z,0.30
2023-01-08T05:21:41.198Z,0.40
2023-01-08T05:24:09.293Z,0.45
2023-01-08T05:26:37.183Z,0.20
2023-01-08T05:29:05.066Z,0.43
2023-01-08T05:31:34.306Z,0.50
2023-01-08T05:34:02.020Z,0.30
2023-01-08T05:36:31.085Z,0.45
2023-01-08T05:38:58.699Z,0.38
2023-01-08T05:41:26.393Z,0.40
2023-01-08T05:43:54.198Z,0.65
2023-01-08T05:46:22.032Z,0.28
2023-01-08T05:48:51.186Z,0.40
2023-01-08T05:51:19.184Z,0.50
2023-01-08T05:53:47.101Z,0.57
2023-01-08T05:56:15.064Z,0.52
2023-01-08T05:58:42.945Z,0.57
2023-01-08T06:01:12.465Z,0.35
2023-01-08T06:03:40.564Z,0.30
2023-01-08T06:06:11.156Z,0.55
2023-01-08T06:08:39.040Z,0.30
2023-01-08T06:11:08.109Z,0.60
2023-01-08T06:13:37.865Z,0.55
2023-01-08T06:16:06.184Z,0.40
2023-01-08T06:18:34.245Z,0.50
2023-01-08T06:21:02.682Z,0.40
2023-01-08T06:23:32.652Z,0.47
2023-01-08T06:26:01.254Z,0.80
2023-01-08T06:28:29.347Z,0.77
2023-01-08T06:30:58.789Z,0.40
2023-01-08T06:33:26.782Z,0.50
2023-01-08T06:35:54.597Z,0.55
2023-01-08T06:38:23.110Z,0.88
2023-01-08T06:40:52.295Z,0.50
2023-01-08T06:43:23.928Z,0.65
2023-01-08T06:45:54.440Z,0.50
2023-01-08T06:48:22.260Z,0.75
2023-01-08T06:50:50.113Z,0.28
2023-01-08T06:53:18.074Z,0.40
2023-01-08T06:55:45.850Z,0.50
2023-01-08T06:58:15.091Z,0.40
2023-01-08T07:00:44.535Z,0.38
2023-01-08T07:03:12.659Z,0.40
2023-01-08T07:05:40.683Z,0.50
2023-01-08T07:08:11.481Z,0.40
2023-01-08T07:10:39.361Z,0.20
2023-01-08T07:13:08.067Z,0.80
2023-01-08T07:15:38.373Z,0.90
2023-01-08T07:18:06.925Z,0.47
2023-01-08T07:20:34.793Z,0.68
2023-01-08T07:23:03.158Z,0.82
2023-01-08T07:25:31.081Z,0.30
2023-01-08T07:27:59.252Z,0.57
2023-01-08T07:30:30.253Z,0.60
2023-01-08T07:33:03.169Z,0.45
2023-01-08T07:35:31.311Z,0.50
2023-01-08T07:37:59.326Z,0.60
2023-01-08T07:40:27.286Z,0.50
2023-01-08T07:42:58.938Z,0.30
2023-01-08T07:45:26.861Z,0.52
2023-01-08T07:47:54.771Z,0.45
2023-01-08T07:50:24.069Z,0.80
2023-01-08T07:52:51.805Z,0.63
2023-01-08T07:55:19.640Z,0.50
2023-01-08T07:57:47.412Z,0.20
2023-01-08T08:00:15.947Z,0.60
2023-01-08T08:02:43.883Z,0.75
2023-01-08T08:05:11.740Z,0.50
2023-01-08T08:07:40.855Z,0.82
2023-01-08T08:10:08.886Z,0.45
2023-01-08T08:12:36.699Z,0.43
2023-01-08T08:15:04.724Z,0.65
2023-01-08T08:17:32.481Z,0.50
2023-01-08T08:20:00.347Z,0.85
2023-01-08T08:22:28.161Z,0.55
2023-01-08T08:24:57.437Z,0.80
2023-01-08T08:27:25.227Z,0.50
2023-01-08T08:29:53.107Z,0.65
2023-01-08T08:32:21.309Z,0.50
2023-01-08T08:34:50.656Z,0.57
2023-01-08T08:37:18.473Z,0.57
2023-01-08T08:39:46.338Z,0.65
2023-01-08T08:42:15.587Z,0.55
2023-01-08T08:44:43.327Z,0.40
2023-01-08T08:47:11.476Z,0.40
2023-01-08T08:49:40.013Z,0.60
2023-01-08T08:52:07.848Z,0.60
2023-01-08T08:54:35.628Z,0.65
2023-01-08T08:57:03.381Z,0.68
2023-01-08T08:59:32.535Z,0.55
2023-01-08T09:02:00.548Z,0.43
2023-01-08T09:04:30.827Z,0.50
2023-01-08T09:06:58.754Z,1.05
2023-01-08T09:09:26.982Z,0.45
2023-01-08T09:11:55.343Z,0.68
2023-01-08T09:14:23.220Z,0.30
2023-01-08T09:16:52.506Z,0.70
2023-01-08T09:19:20.271Z,0.22
2023-01-08T09:21:48.029Z,0.30
2023-01-08T09:24:15.829Z,0.30
2023-01-08T09:26:43.609Z,0.73
2023-01-08T09:29:11.363Z,0.50
2023-01-08T09:31:39.227Z,0.68
2023-01-08T09:34:08.490Z,0.50
2023-01-08T09:36:36.303Z,0.65
2023-01-08T09:39:04.307Z,0.40
2023-01-08T09:41:33.706Z,0.47
2023-01-08T09:44:02.973Z,0.60
2023-01-08T09:46:30.928Z,0.80
2023-01-08T09:49:00.112Z,0.55
2023-01-08T09:51:32.451Z,0.60
2023-01-08T09:54:00.520Z,0.52
2023-01-08T09:56:28.489Z,0.70
2023-01-08T09:58:57.678Z,0.40
2023-01-08T10:01:27.589Z,0.43
2023-01-08T10:03:58.536Z,0.60
2023-01-08T10:06:26.502Z,0.70
2023-01-08T10:08:55.858Z,0.70
2023-01-08T10:11:24.669Z,0.73
2023-01-08T10:13:54.201Z,0.82
2023-01-08T10:16:26.323Z,0.88
2023-01-08T10:18:54.651Z,0.70
2023-01-08T10:21:25.320Z,0.50
2023-01-08T10:23:53.935Z,0.60
2023-01-08T10:26:30.722Z,0.77
2023-01-08T10:29:08.525Z,0.70
2023-01-08T10:31:40.351Z,0.73
2023-01-08T10:34:09.735Z,0.73
2023-01-08T10:36:40.726Z,0.50
2023-01-08T10:39:08.936Z,0.70
2023-01-08T10:41:40.800Z,0.70
2023-01-08T10:44:15.985Z,0.80
2023-01-08T10:46:44.655Z,0.60
2023-01-08T10:49:16.844Z,0.60
2023-01-08T10:51:49.867Z,0.63
2023-01-08T10:54:37.757Z,0.70
2023-01-08T10:57:21.062Z,0.60
2023-01-08T10:59:48.954Z,0.70
2023-01-08T11:02:22.154Z,0.70
2023-01-08T11:04:52.158Z,0.57
2023-01-08T11:07:21.450Z,0.77
2023-01-08T11:09:50.255Z,0.73
2023-01-08T11:12:27.505Z,0.90
2023-01-08T11:14:55.462Z,0.68
2023-01-08T11:17:25.613Z,0.57
2023-01-08T11:19:55.702Z,0.80
2023-01-08T11:22:24.575Z,0.90
2023-01-08T11:24:53.420Z,0.60
2023-01-08T11:27:27.907Z,1.00
2023-01-08T11:29:59.342Z,0.85
2023-01-08T11:32:33.126Z,0.70
2023-01-08T11:35:03.539Z,0.65
2023-01-08T11:37:32.902Z,0.90
2023-01-08T11:40:00.847Z,0.70
2023-01-08T11:42:35.800Z,1.10
2023-01-08T11:45:11.957Z,0.63
2023-01-08T11:47:47.565Z,0.98
2023-01-08T11:50:20.377Z,1.17
2023-01-08T11:52:53.538Z,1.05
2023-01-08T11:55:28.070Z,1.45
2023-01-08T11:58:07.019Z,1.52
2023-01-08T12:00:44.520Z,1.20
2023-01-08T12:03:15.821Z,1.10
2023-01-08T12:05:47.698Z,1.33
2023-01-08T12:08:22.417Z,1.23
2023-01-08T12:10:59.989Z,1.23
2023-01-08T12:13:39.279Z,1.20
2023-01-08T12:16:14.396Z,1.40
2023-01-08T12:18:49.540Z,1.10
2023-01-08T12:21:23.668Z,1.10
2023-01-08T12:23:59.770Z,1.15
2023-01-08T12:26:31.885Z,0.93
2023-01-08T12:29:06.560Z,1.33
2023-01-08T12:31:46.353Z,1.10
2023-01-08T12:34:18.160Z,1.02
2023-01-08T12:36:48.057Z,1.25
2023-01-08T12:39:18.226Z,0.50
2023-01-08T12:41:46.583Z,1.15
2023-01-08T12:44:25.698Z,1.08
2023-01-08T12:46:54.588Z,0.90
2023-01-08T12:49:27.213Z,0.82
2023-01-08T12:51:57.336Z,1.13
2023-01-08T12:54:28.966Z,0.80
2023-01-08T12:57:02.033Z,0.93
2023-01-08T12:59:37.172Z,0.75
2023-01-08T13:02:09.476Z,1.00
2023-01-08T13:04:40.819Z,0.75
2023-01-08T13:07:13.552Z,0.88
2023-01-08T13:09:41.330Z,0.55
2023-01-08T13:12:10.229Z,1.02
2023-01-08T13:14:43.294Z,0.93
2023-01-08T13:17:17.928Z,0.90
2023-01-08T13:19:46.867Z,0.90
2023-01-08T13:22:24.283Z,0.80
2023-01-08T13:24:52.433Z,0.70
2023-01-08T13:27:37.944Z,0.70
2023-01-08T13:30:20.711Z,0.80
2023-01-08T13:32:50.057Z,0.50
2023-01-08T13:35:25.788Z,0.75
2023-01-08T13:37:54.363Z,0.73
2023-01-08T13:40:42.016Z,0.80
2023-01-08T13:43:14.551Z,0.93
2023-01-08T13:45:43.031Z,0.98
2023-01-08T13:48:23.128Z,1.30
2023-01-08T13:50:51.035Z,1.08
2023-01-08T13:53:19.672Z,1.02
2023-01-08T13:55:54.107Z,1.35
2023-01-08T13:58:24.896Z,1.33
2023-01-08T14:00:54.104Z,1.20
2023-01-08T14:03:27.831Z,1.20
2023-01-08T14:06:06.575Z,1.20
2023-01-08T14:08:34.569Z,1.23
2023-01-08T14:11:04.221Z,1.33
2023-01-08T14:13:34.232Z,0.90
2023-01-08T14:16:03.630Z,1.30
2023-01-08T14:18:33.048Z,1.30
2023-01-08T14:21:00.968Z,1.02
2023-01-08T14:23:29.955Z,1.20
2023-01-08T14:25:59.037Z,1.45
2023-01-08T14:28:26.856Z,1.33
2023-01-08T14:30:55.204Z,1.23
2023-01-08T14:33:25.202Z,0.98
2023-01-08T14:35:55.262Z,1.10
2023-01-08T14:38:23.226Z,1.27
2023-01-08T14:40:58.587Z,1.17
2023-01-08T14:43:26.775Z,1.15
2023-01-08T14:45:55.894Z,1.42
2023-01-08T14:48:25.612Z,0.90
2023-01-08T14:51:11.441Z,1.05
2023-01-08T14:53:44.679Z,1.20
2023-01-08T14:56:13.792Z,1.10
2023-01-08T14:58:42.607Z,1.15
2023-01-08T15:01:16.289Z,1.10
2023-01-08T15:03:44.934Z,1.30
2023-01-08T15:06:14.013Z,1.30
2023-01-08T15:08:44.318Z,0.80
2023-01-08T15:11:21.238Z,1.00
2023-01-08T15:13:49.619Z,1.00
2023-01-08T15:16:19.813Z,1.15
2023-01-08T15:18:48.623Z,0.90
2023-01-08T15:21:20.311Z,1.10
2023-01-08T15:23:50.193Z,1.10
2023-01-08T15:26:18.623Z,0.90
2023-01-08T15:28:49.652Z,1.40
2023-01-08T15:31:32.440Z,1.15
2023-01-08T15:34:01.051Z,0.93
2023-01-08T15:36:28.972Z,1.27
2023-01-08T15:38:58.116Z,1.05
2023-01-08T15:41:43.442Z,0.93
2023-01-08T15:44:12.929Z,0.60
2023-01-08T15:46:40.857Z,0.43
2023-01-08T15:49:08.725Z,1.00
2023-01-08T15:51:38.476Z,0.75
2023-01-08T15:54:07.599Z,0.60
2023-01-08T15:56:35.365Z,0.60
2023-01-08T15:59:03.171Z,0.93
2023-01-08T16:01:31.795Z,0.57
2023-01-08T16:03:59.651Z,0.60
2023-01-08T16:06:28.143Z,0.50
2023-01-08T16:08:59.941Z,0.65
2023-01-08T16:11:29.495Z,0.63
2023-01-08T16:13:57.357Z,0.70
2023-01-08T16:16:25.450Z,0.50
2023-01-08T16:18:53.700Z,0.70
2023-01-08T16:21:21.476Z,0.60
2023-01-08T16:23:49.332Z,0.50
2023-01-08T16:26:17.366Z,0.80
2023-01-08T16:28:46.596Z,0.57
2023-01-08T16:31:14.407Z,0.60
2023-01-08T16:33:42.220Z,0.63
2023-01-08T16:36:10.710Z,0.80
2023-01-08T16:38:38.569Z,0.52
2023-01-08T16:41:06.638Z,0.50
2023-01-08T16:43:40.246Z,0.80
2023-01-08T16:46:12.302Z,0.57
2023-01-08T16:48:40.167Z,0.30
2023-01-08T16:51:08.235Z,0.52
2023-01-08T16:53:36.831Z,0.57
2023-01-08T16:56:05.199Z,0.43
2023-01-08T16:58:35.025Z,0.60
2023-01-08T17:01:03.655Z,0.57
2023-01-08T17:03:33.217Z,0.90
2023-01-08T17:06:04.646Z,0.70
2023-01-08T17:08:32.459Z,0.60
2023-01-08T17:11:00.366Z,0.80
2023-01-08T17:13:28.538Z,0.68
2023-01-08T17:15:57.942Z,0.70
2023-01-08T17:18:26.837Z,0.47
2023-01-08T17:20:56.080Z,0.77
2023-01-08T17:23:27.332Z,0.60
2023-01-08T17:25:55.244Z,0.63
2023-01-08T17:28:25.059Z,0.98
2023-01-08T17:30:53.338Z,0.57
2023-01-08T17:33:21.357Z,0.47
2023-01-08T17:35:49.424Z,0.50
2023-01-08T17:38:18.633Z,0.50
2023-01-08T17:40:46.539Z,0.68
2023-01-08T17:43:14.334Z,0.75
2023-01-08T17:45:42.145Z,0.70
2023-01-08T17:48:09.991Z,0.55
2023-01-08T17:50:39.575Z,0.75
2023-01-08T17:53:07.256Z,0.68
2023-01-08T17:55:37.108Z,0.70
2023-01-08T17:58:04.814Z,0.50
2023-01-08T18:00:32.629Z,0.85
2023-01-08T18:03:00.903Z,0.60
2023-01-08T18:05:28.675Z,0.90
2023-01-08T18:07:56.429Z,0.50
2023-01-08T18:10:24.245Z,0.50
2023-01-08T18:12:53.546Z,0.60
2023-01-08T18:15:21.356Z,0.43
2023-01-08T18:17:49.740Z,0.88
2023-01-08T18:20:17.753Z,0.50
2023-01-08T18:22:46.303Z,0.55
2023-01-08T18:25:14.148Z,0.43
2023-01-08T18:27:41.878Z,0.77
2023-01-08T18:30:11.941Z,0.80
2023-01-08T18:32:39.682Z,0.90
2023-01-08T18:35:07.861Z,0.98
2023-01-08T18:37:35.727Z,1.00
2023-01-08T18:40:03.753Z,0.93
2023-01-08T18:42:32.790Z,0.80
2023-01-08T18:45:02.436Z,0.63
2023-01-08T18:47:31.753Z,1.17
2023-01-08T18:50:03.176Z,0.90
2023-01-08T18:52:31.251Z,1.25
2023-01-08T18:54:59.181Z,0.93
2023-01-08T18:57:27.047Z,1.15
2023-01-08T18:59:54.863Z,1.20
2023-01-08T19:02:23.919Z,0.88
2023-01-08T19:04:53.667Z,0.88
2023-01-08T19:07:21.577Z,1.30
2023-01-08T19:09:49.588Z,1.45
2023-01-08T19:12:17.460Z,1.13
2023-01-08T19:14:47.102Z,1.02
2023-01-08T19:17:15.281Z,1.13
2023-01-08T19:19:43.011Z,1.00
2023-01-08T19:22:12.195Z,0.90
2023-01-08T19:24:39.878Z,1.10
2023-01-08T19:27:07.676Z,1.10
2023-01-08T19:29:35.702Z,0.93
2023-01-08T19:32:03.613Z,1.13
2023-01-08T19:34:31.326Z,1.10
2023-01-08T19:37:01.134Z,1.10
2023-01-08T19:39:30.840Z,1.33
2023-01-08T19:42:16.515Z,1.05
2023-01-08T19:44:44.224Z,0.95
2023-01-08T19:47:12.139Z,1.13
2023-01-08T19:49:41.488Z,0.98
2023-01-08T19:52:09.284Z,0.90
2023-01-08T19:54:38.511Z,1.08
2023-01-08T19:57:06.389Z,1.27
2023-01-08T19:59:34.393Z,1.42
2023-01-08T20:02:02.349Z,0.40
2023-01-08T20:04:30.848Z,0.70
2023-01-08T20:06:59.329Z,0.60
2023-01-08T20:09:27.246Z,0.88
2023-01-08T20:11:56.544Z,0.47
2023-01-08T20:14:24.340Z,0.68
2023-01-08T20:16:52.062Z,0.50
2023-01-08T20:19:20.058Z,0.47
2023-01-08T20:21:48.101Z,0.70
2023-01-08T20:24:16.372Z,0.63
2023-01-08T20:26:44.942Z,0.60
2023-01-08T20:29:14.890Z,0.68
2023-01-08T20:31:43.979Z,0.57
2023-01-08T20:34:14.366Z,0.50
2023-01-08T20:36:42.339Z,0.85
2023-01-08T20:39:10.831Z,0.50
2023-01-08T20:41:38.921Z,0.40
2023-01-08T20:44:07.070Z,0.60
2023-01-08T20:46:36.988Z,0.70
2023-01-08T20:49:05.920Z,0.95
2023-01-08T20:51:33.733Z,0.98
2023-01-08T20:54:02.222Z,0.85
2023-01-08T20:56:29.927Z,0.60
2023-01-08T20:58:58.476Z,0.75
2023-01-08T21:01:28.087Z,0.65
2023-01-08T21:03:58.315Z,0.65
2023-01-08T21:06:27.800Z,0.50
2023-01-08T21:08:56.480Z,0.57
2023-01-08T21:11:24.606Z,0.60
2023-01-08T21:13:52.926Z,0.90
2023-01-08T21:16:23.151Z,1.10
2023-01-08T21:18:51.025Z,0.90
2023-01-08T21:21:20.940Z,0.68
2023-01-08T21:23:49.449Z,0.60
2023-01-08T21:26:18.079Z,0.50
2023-01-08T21:28:46.518Z,0.80
2023-01-08T21:31:15.455Z,0.40
2023-01-08T21:33:44.907Z,0.50
2023-01-08T21:36:14.350Z,0.43
2023-01-08T21:38:44.235Z,0.50
2023-01-08T21:41:33.034Z,0.60
2023-01-08T21:44:18.614Z,0.60
2023-01-08T21:46:46.522Z,0.60
2023-01-08T21:49:14.616Z,0.50
2023-01-08T21:52:00.234Z,0.52
2023-01-08T21:54:29.531Z,0.47
2023-01-08T21:56:57.408Z,0.50
2023-01-08T21:59:25.257Z,0.73
2023-01-08T22:01:53.283Z,0.60
2023-01-08T22:04:21.328Z,0.60
2023-01-08T22:06:49.262Z,0.70
2023-01-08T22:09:17.231Z,0.60
2023-01-08T22:11:46.734Z,0.43
2023-01-08T22:14:14.600Z,0.60
2023-01-08T22:16:42.571Z,0.50
2023-01-08T22:19:11.003Z,0.55
2023-01-08T22:21:39.091Z,0.70
2023-01-08T22:24:07.291Z,0.45
2023-01-08T22:26:35.730Z,0.50
2023-01-08T22:29:06.014Z,0.40
2023-01-08T22:31:34.366Z,0.75
2023-01-08T22:34:02.282Z,0.30
2023-01-08T22:36:30.191Z,0.40
2023-01-08T22:38:58.025Z,0.40
2023-01-08T22:41:26.058Z,0.40
2023-01-08T22:43:55.933Z,0.40
2023-01-08T22:46:25.845Z,0.47
2023-01-08T22:48:53.936Z,0.60
2023-01-08T22:51:22.410Z,0.38
2023-01-08T22:53:50.287Z,0.38
2023-01-08T22:56:18.349Z,0.30
2023-01-08T22:58:46.568Z,0.45
2023-01-08T23:01:15.333Z,0.50
2023-01-08T23:03:44.812Z,0.40
2023-01-08T23:06:13.439Z,0.50
2023-01-08T23:08:42.123Z,0.93
2023-01-08T23:11:10.806Z,0.77
2023-01-08T23:13:39.183Z,0.57
2023-01-08T23:16:08.036Z,0.40
2023-01-08T23:18:36.717Z,0.50
2023-01-08T23:21:07.945Z,0.50
2023-01-08T23:23:35.873Z,0.57
2023-01-08T23:26:04.495Z,0.38
2023-01-08T23:28:32.346Z,0.40
2023-01-08T23:31:00.282Z,0.40
2023-01-08T23:33:28.466Z,0.32
2023-01-08T23:35:56.319Z,0.43
2023-01-08T23:38:25.622Z,0.28
2023-01-08T23:40:53.484Z,0.47
2023-01-08T23:43:21.270Z,0.50
2023-01-08T23:45:49.350Z,0.30
2023-01-08T23:48:17.337Z,0.30
2023-01-08T23:50:45.307Z,0.43
2023-01-08T23:53:13.170Z,0.30
2023-01-08T23:55:42.529Z,0.32
2023-01-08T23:58:10.697Z,0.55
